Time;durP1;ratioP1;P1;durP2;ratioP2;P2;SDS_P1;SDS_P2;PMS_P1;PMS_P2;Temp;Humidity;BMP_temperature;BMP_pressure;BME280_temperature;BME280_humidity;BME280_pressure;Samples;Min_cycle;Max_cycle;Signal;HPM_P1;HPM_P2
2022/08/23 00:01:54;;;;;;;10.50;4.50;;;;;;;21.35;60.07;99591.30;1623473;88;21103;-70
2022/08/23 00:04:33;;;;;;;16.15;5.08;;;;;;;21.34;59.98;99582.87;1626884;86;21085;-75
2022/08/23 00:07:00;;;;;;;27.90;6.28;;;;;;;21.27;60.37;99588.27;1629068;86;21043;-74
2022/08/23 00:09:26;;;;;;;15.58;4.53;;;;;;;21.22;60.42;99584.88;1626095;88;21107;-75
2022/08/23 00:12:13;;;;;;;18.50;5.42;;;;;;;21.21;60.35;99588.73;1626317;88;21564;-71
2022/08/23 00:14:45;;;;;;;9.68;4.00;;;;;;;21.25;60.11;99595.17;1648722;86;21121;-71
2022/08/23 00:17:13;;;;;;;14.85;4.45;;;;;;;21.24;59.88;99593.58;1642500;86;22400;-71
2022/08/23 00:19:40;;;;;;;11.83;4.50;;;;;;;21.23;59.87;99596.07;1618695;86;21321;-75
2022/08/23 00:22:07;;;;;;;16.70;4.53;;;;;;;21.25;59.65;99591.06;1649137;86;21067;-71
2022/08/23 00:24:34;;;;;;;14.47;4.53;;;;;;;21.20;59.65;99592.59;1652980;86;21038;-70
2022/08/23 00:27:09;;;;;;;15.40;4.40;;;;;;;21.16;59.58;99586.16;1623679;86;21149;-71
2022/08/23 00:29:46;;;;;;;14.80;5.28;;;;;;;21.14;59.50;99592.53;1621940;88;21106;-73
2022/08/23 00:32:20;;;;;;;12.25;4.72;;;;;;;21.14;59.46;99591.97;1615328;86;21077;-73
2022/08/23 00:34:47;;;;;;;10.38;3.50;;;;;;;21.12;59.31;99597.48;1648645;86;21587;-74
2022/08/23 00:37:13;;;;;;;5.25;3.83;;;;;;;21.10;59.20;99593.69;1642577;86;21067;-71
2022/08/23 00:39:40;;;;;;;14.98;4.75;;;;;;;21.10;59.19;99598.38;1609938;89;21115;-74
2022/08/23 00:47:44;;;;;;;14.47;5.87;;;;;;;20.83;60.59;99604.37;1651001;85;21074;-71
2022/08/23 00:50:37;;;;;;;19.07;6.00;;;;;;;20.76;60.67;99614.99;1634478;87;21146;-71
2022/08/23 00:53:19;;;;;;;17.27;7.28;;;;;;;20.72;60.91;99615.95;1645838;86;21166;-69
2022/08/23 00:55:47;;;;;;;14.63;6.30;;;;;;;20.70;60.89;99613.53;1634144;87;21116;-70
2022/08/23 00:58:16;;;;;;;30.50;10.48;;;;;;;20.68;60.87;99621.23;1642561;86;21038;-68
2022/08/23 01:00:44;;;;;;;27.93;10.93;;;;;;;20.64;60.98;99614.80;1634385;87;21555;-69
2022/08/23 01:03:11;;;;;;;25.70;8.95;;;;;;;20.60;60.90;99615.19;1662091;86;21597;-72
2022/08/23 01:05:51;;;;;;;31.65;10.18;;;;;;;20.57;61.00;99615.02;1664849;86;21795;-74
2022/08/23 01:08:18;;;;;;;28.77;13.72;;;;;;;20.58;61.00;99613.88;1637298;86;21048;-72
2022/08/23 01:10:52;;;;;;;39.35;13.58;;;;;;;20.56;60.98;99616.95;1614149;87;21071;-71
2022/08/23 01:13:26;;;;;;;21.05;7.58;;;;;;;20.54;61.00;99616.45;1663658;86;21108;-71
2022/08/23 01:15:58;;;;;;;14.95;6.35;;;;;;;20.53;60.93;99617.56;1656892;86;21055;-71
2022/08/23 01:18:25;;;;;;;21.15;5.85;;;;;;;20.51;61.03;99614.36;1613120;87;21767;-72
2022/08/23 01:21:06;;;;;;;18.35;4.78;;;;;;;20.49;61.04;99613.86;1625554;88;21090;-73
2022/08/23 01:23:43;;;;;;;14.65;4.50;;;;;;;20.45;61.25;99610.97;1606140;89;21512;-73
2022/08/23 01:26:09;;;;;;;9.95;4.30;;;;;;;20.41;61.24;99614.09;1634613;86;20979;-73
2022/08/23 01:28:39;;;;;;;17.00;5.20;;;;;;;20.37;61.35;99619.14;1645269;86;21624;-72
2022/08/23 01:31:07;;;;;;;14.87;5.62;;;;;;;20.37;61.38;99610.94;1639839;86;21104;-70
2022/08/23 01:33:36;;;;;;;11.53;4.03;;;;;;;20.34;61.52;99619.75;1618439;87;21543;-70
2022/08/23 01:36:03;;;;;;;17.80;4.10;;;;;;;20.31;61.60;99613.56;1638458;87;20971;-70
2022/08/23 01:38:31;;;;;;;10.80;5.00;;;;;;;20.29;61.70;99618.49;1636909;86;21076;-71
2022/08/23 01:40:58;;;;;;;9.35;4.35;;;;;;;20.28;61.67;99615.55;1577061;88;21079;-70
2022/08/23 01:43:26;;;;;;;23.38;6.37;;;;;;;20.26;61.92;99607.66;1594875;90;21145;-72
2022/08/23 01:45:54;;;;;;;9.40;4.05;;;;;;;20.22;62.06;99605.88;1594802;90;21046;-70
2022/08/23 01:48:23;;;;;;;13.13;4.22;;;;;;;20.14;62.29;99618.94;1604401;88;21023;-70
2022/08/23 01:50:50;;;;;;;12.03;3.72;;;;;;;20.10;62.29;99623.39;1595088;88;21133;-71
2022/08/23 01:53:17;;;;;;;15.28;4.60;;;;;;;20.08;62.29;99626.45;1608578;88;21058;-71
2022/08/23 01:55:47;;;;;;;8.60;4.22;;;;;;;20.08;62.29;99626.45;1621692;88;21174;-73
2022/08/23 01:58:15;;;;;;;15.50;4.33;;;;;;;20.10;62.27;99632.95;1612726;88;21022;-72
2022/08/23 02:00:43;;;;;;;14.25;4.10;;;;;;;20.09;62.35;99628.63;1594402;88;21031;-71
2022/08/23 02:03:12;;;;;;;16.02;4.90;;;;;;;20.09;62.35;99626.70;1570577;89;21038;-72
2022/08/23 02:05:40;;;;;;;13.78;4.70;;;;;;;20.02;62.60;99631.24;1596209;89;21533;-73
2022/08/23 02:10:53;;;;;;;15.32;5.25;;;;;;;19.99;62.76;99633.80;1570023;90;21535;-72
2022/08/23 02:13:21;;;;;;;11.83;5.28;;;;;;;19.99;62.59;99633.80;1590664;88;21096;-75
2022/08/23 02:15:50;;;;;;;19.65;4.75;;;;;;;19.97;62.41;99634.11;1616079;87;21104;-76
2022/08/23 02:18:18;;;;;;;17.23;6.00;;;;;;;20.01;62.25;99634.28;1602589;87;21067;-72
2022/08/23 02:20:50;;;;;;;7.78;4.22;;;;;;;19.98;62.12;99637.64;1624467;87;21066;-72
2022/08/23 02:23:17;;;;;;;10.32;4.40;;;;;;;19.98;62.12;99637.64;1593431;89;21067;-73
2022/08/23 02:25:45;;;;;;;10.93;5.37;;;;;;;20.00;61.98;99641.66;1615037;88;21193;-73
2022/08/23 02:28:12;;;;;;;13.22;6.03;;;;;;;20.00;61.88;99642.22;1621444;87;21078;-73
2022/08/23 02:30:39;;;;;;;16.97;4.65;;;;;;;19.97;61.86;99644.22;1648587;86;21557;-71
2022/08/23 02:33:06;;;;;;;9.33;3.87;;;;;;;19.97;61.84;99647.76;1648384;86;22193;-70
2022/08/23 02:35:33;;;;;;;13.15;4.87;;;;;;;19.95;61.71;99643.74;1621944;87;20996;-72
2022/08/23 02:38:10;;;;;;;15.98;4.90;;;;;;;19.93;61.76;99648.70;1632192;86;21039;-76
2022/08/23 02:40:38;;;;;;;19.62;5.85;;;;;;;19.93;61.67;99645.41;1622374;87;21075;-72
2022/08/23 02:43:06;;;;;;;10.20;4.78;;;;;;;19.93;61.49;99645.41;1603761;87;21547;-74
2022/08/23 02:45:33;;;;;;;10.63;4.50;;;;;;;19.92;61.50;99641.06;1580447;89;21270;-73
2022/08/23 02:48:00;;;;;;;13.98;5.20;;;;;;;19.86;61.60;99636.84;1602335;87;21029;-72
2022/08/23 02:50:29;;;;;;;12.82;5.58;;;;;;;19.86;61.60;99636.84;1598436;89;20981;-71
2022/08/23 02:52:57;;;;;;;14.78;6.05;;;;;;;19.85;61.69;99640.72;1616463;87;21376;-73
2022/08/23 02:55:24;;;;;;;11.90;4.25;;;;;;;19.85;61.64;99644.81;1617757;88;21545;-71
2022/08/23 02:57:51;;;;;;;19.37;4.90;;;;;;;19.87;61.51;99645.28;1617869;86;22004;-72
2022/08/23 03:00:18;;;;;;;10.28;4.62;;;;;;;19.87;61.37;99651.30;1616186;88;20968;-77
2022/08/23 03:02:45;;;;;;;6.55;4.20;;;;;;;19.88;61.29;99659.19;1619223;86;21540;-73
2022/08/23 03:05:11;;;;;;;8.25;5.05;;;;;;;19.87;61.26;99656.20;1616266;88;21003;-75
2022/08/23 03:07:40;;;;;;;10.82;5.42;;;;;;;19.85;61.29;99661.19;1616420;88;21027;-75
2022/08/23 03:10:09;;;;;;;12.45;4.75;;;;;;;19.84;61.30;99660.94;1617011;87;21185;-76
2022/08/23 03:12:37;;;;;;;18.92;5.45;;;;;;;19.85;61.17;99659.83;1576959;88;21190;-74
2022/08/23 03:15:05;;;;;;;9.05;5.00;;;;;;;19.84;61.28;99667.76;1617005;87;21040;-73
2022/08/23 03:17:33;;;;;;;9.75;5.22;;;;;;;19.83;61.29;99663.41;1619862;86;21060;-73
2022/08/23 03:20:00;;;;;;;15.25;4.58;;;;;;;19.80;61.34;99672.23;1617584;88;21778;-77
2022/08/23 03:22:27;;;;;;;12.40;4.05;;;;;;;19.83;61.00;99674.88;1618365;87;21306;-74
2022/08/23 03:24:54;;;;;;;22.22;5.17;;;;;;;19.83;61.00;99674.88;1619827;86;21039;-74
2022/08/23 03:27:22;;;;;;;30.25;5.70;;;;;;;19.85;60.95;99674.03;1616036;88;21025;-74
2022/08/23 03:29:49;;;;;;;17.02;5.03;;;;;;;19.87;60.80;99676.68;1616472;88;21095;-74
2022/08/23 03:32:16;;;;;;;14.43;4.62;;;;;;;19.87;60.76;99679.41;1617759;87;21088;-75
2022/08/23 03:34:43;;;;;;;14.00;4.70;;;;;;;19.89;60.57;99679.11;1631664;86;21113;-73
2022/08/23 03:37:11;;;;;;;11.73;4.95;;;;;;;19.90;60.47;99676.62;1653239;86;21067;-73
2022/08/23 03:39:38;;;;;;;20.95;4.97;;;;;;;19.90;60.51;99684.23;1646308;86;21186;-72
2022/08/23 03:42:05;;;;;;;10.80;5.12;;;;;;;19.93;60.33;99689.09;1613495;87;21079;-72
2022/08/23 03:44:33;;;;;;;17.85;4.97;;;;;;;19.96;60.15;99691.19;1598172;89;21055;-72
2022/08/23 03:47:00;;;;;;;15.35;4.90;;;;;;;20.00;59.97;99692.72;1598349;89;21172;-72
2022/08/23 03:49:27;;;;;;;29.42;6.35;;;;;;;20.02;59.80;99690.50;1598020;89;21051;-73
2022/08/23 03:51:57;;;;;;;16.40;5.35;;;;;;;20.05;59.81;99690.45;1597926;88;21112;-72
2022/08/23 03:54:23;;;;;;;12.35;3.92;;;;;;;20.09;59.56;99700.99;1598430;89;21032;-72
2022/08/23 03:57:01;;;;;;;13.40;4.80;;;;;;;20.10;59.24;99696.56;1598419;89;21102;-71
2022/08/23 03:59:31;;;;;;;18.95;5.22;;;;;;;20.15;59.20;99703.81;1573113;89;21367;-72
2022/08/23 04:01:59;;;;;;;18.05;4.87;;;;;;;20.15;59.20;99703.81;1585756;88;21509;-72
2022/08/23 04:04:27;;;;;;;11.40;4.50;;;;;;;20.12;58.88;99697.63;1598446;89;21067;-72
2022/08/23 04:07:11;;;;;;;8.98;4.28;;;;;;;20.16;58.82;99711.70;1598656;89;21052;-72
2022/08/23 04:09:39;;;;;;;19.73;4.83;;;;;;;20.18;58.74;99708.12;1598375;89;21059;-71
2022/08/23 04:12:07;;;;;;;14.53;5.15;;;;;;;20.24;58.79;99711.53;1598412;88;21200;-77
2022/08/23 04:14:34;;;;;;;27.30;5.83;;;;;;;20.28;58.40;99716.61;1552606;89;21012;-71
2022/08/23 04:17:02;;;;;;;14.43;4.65;;;;;;;20.30;58.25;99712.98;1598241;89;21028;-72
2022/08/23 04:19:29;;;;;;;16.50;5.00;;;;;;;20.35;58.17;99719.72;1571733;89;21044;-73
2022/08/23 04:22:00;;;;;;;29.13;5.87;;;;;;;20.35;58.17;99719.72;1590865;88;21075;-79
2022/08/23 04:24:29;;;;;;;15.23;5.12;;;;;;;20.37;57.98;99722.39;1597806;89;21306;-72
2022/08/23 04:26:55;;;;;;;16.50;5.90;;;;;;;20.38;57.97;99720.47;1589905;89;21635;-76
2022/08/23 04:29:22;;;;;;;24.35;6.47;;;;;;;20.42;57.78;99715.98;1595103;88;21146;-73
2022/08/23 04:31:49;;;;;;;26.37;6.20;;;;;;;20.42;57.78;99715.98;1610052;88;21561;-73
2022/08/23 04:34:16;;;;;;;15.58;6.50;;;;;;;20.44;57.73;99724.66;1599730;88;21836;-74
2022/08/23 04:36:43;;;;;;;23.02;4.75;;;;;;;20.52;57.60;99733.48;1599677;89;21153;-73
2022/08/23 04:39:09;;;;;;;14.30;4.40;;;;;;;20.52;57.60;99733.48;1600195;88;21586;-72
2022/08/23 04:44:23;;;;;;;23.73;5.60;;;;;;;20.61;57.41;99741.71;1599994;89;21161;-74
2022/08/23 04:46:49;;;;;;;11.68;5.58;;;;;;;20.68;57.24;99746.95;1599588;89;21516;-73
2022/08/23 04:49:17;;;;;;;22.73;5.58;;;;;;;20.74;57.08;99746.27;1607464;88;21586;-73
2022/08/23 04:51:44;;;;;;;20.60;5.22;;;;;;;20.74;56.81;99741.60;1621827;88;20972;-80
2022/08/23 04:54:11;;;;;;;28.65;9.28;;;;;;;20.76;57.13;99745.40;1599527;89;21015;-74
2022/08/23 04:56:40;;;;;;;32.83;7.78;;;;;;;20.76;57.10;99744.84;1599320;89;21080;-73
2022/08/23 04:59:07;;;;;;;38.90;7.72;;;;;;;20.80;57.11;99748.55;1599515;88;21521;-74
2022/08/23 05:01:34;;;;;;;47.75;12.85;;;;;;;20.82;56.96;99742.19;1600931;88;21517;-79
2022/08/23 05:04:02;;;;;;;52.45;18.98;;;;;;;20.87;57.12;99748.07;1573295;91;21062;-74
2022/08/23 05:06:30;;;;;;;61.63;25.68;;;;;;;20.95;56.95;99741.03;1556810;90;21589;-73
2022/08/23 05:08:57;;;;;;;55.70;23.50;;;;;;;21.00;56.78;99742.27;1595920;89;20998;-73
2022/08/23 05:11:24;;;;;;;37.67;20.77;;;;;;;21.04;56.67;99748.14;1607454;88;21071;-74
2022/08/23 05:13:50;;;;;;;47.25;17.35;;;;;;;21.07;56.58;99752.97;1560857;90;21773;-77
2022/08/23 05:16:17;;;;;;;50.55;16.60;;;;;;;21.12;56.70;99754.19;1583034;90;21098;-73
2022/08/23 05:18:45;;;;;;;46.48;14.28;;;;;;;21.19;56.62;99749.66;1571094;91;21085;-73
2022/08/23 05:21:19;;;;;;;50.67;14.13;;;;;;;21.24;56.46;99757.16;1575531;91;21073;-73
2022/08/23 05:23:46;;;;;;;47.83;10.25;;;;;;;21.29;56.37;99758.35;1575826;89;21050;-72
2022/08/23 05:26:15;;;;;;;60.35;11.45;;;;;;;21.34;56.18;99762.89;1574268;91;21820;-73
2022/08/23 05:28:45;;;;;;;40.45;9.85;;;;;;;21.38;56.18;99765.79;1573798;91;21098;-72
2022/08/23 05:31:17;;;;;;;28.10;6.75;;;;;;;21.42;55.93;99769.50;1575600;89;21049;-72
2022/08/23 05:33:52;;;;;;;38.98;7.22;;;;;;;21.45;55.97;99768.28;1576247;89;21034;-72
2022/08/23 05:36:21;;;;;;;32.48;6.45;;;;;;;21.51;56.10;99770.31;1567479;91;21085;-74
2022/08/23 05:38:48;;;;;;;44.53;10.15;;;;;;;21.57;55.98;99774.52;1576316;89;21187;-72
2022/08/23 05:41:15;;;;;;;46.42;7.62;;;;;;;21.63;55.84;99773.23;1571973;89;21613;-71
2022/08/23 05:43:42;;;;;;;37.85;7.40;;;;;;;21.69;55.66;99778.77;1587527;89;21046;-72
2022/08/23 05:46:12;;;;;;;24.30;5.25;;;;;;;21.74;55.37;99779.43;1592953;88;21093;-71
2022/08/23 05:48:41;;;;;;;20.97;7.12;;;;;;;21.81;55.41;99777.59;1608567;87;21068;-73
2022/08/23 05:51:30;;;;;;;27.98;6.80;;;;;;;21.90;55.26;99779.76;1594899;90;21157;-72
2022/08/23 05:54:02;;;;;;;46.60;8.73;;;;;;;21.97;55.16;99781.47;1625225;87;21088;-71
2022/08/23 05:56:33;;;;;;;43.10;8.85;;;;;;;22.05;54.78;99781.23;1642882;87;21027;-71
2022/08/23 05:59:04;;;;;;;35.92;9.13;;;;;;;22.11;54.75;99784.84;1639762;86;21130;-72
2022/08/23 06:01:31;;;;;;;25.70;7.25;;;;;;;22.16;54.63;99787.41;1615197;87;21106;-75
2022/08/23 06:04:01;;;;;;;41.40;7.22;;;;;;;22.23;54.43;99789.67;1590705;88;21217;-73
2022/08/23 06:06:28;;;;;;;32.38;9.75;;;;;;;22.29;54.17;99786.20;1570306;91;21015;-74
2022/08/23 06:08:55;;;;;;;34.90;7.53;;;;;;;22.38;54.10;99793.28;1572048;88;21761;-72
2022/08/23 06:11:24;;;;;;;31.93;7.85;;;;;;;22.45;53.47;99796.31;1643816;86;21067;-73
2022/08/23 06:13:55;;;;;;;33.65;9.33;;;;;;;22.53;53.57;99810.59;1622117;88;21533;-73
2022/08/23 06:16:28;;;;;;;39.85;7.15;;;;;;;22.59;53.44;99809.26;1632102;87;22871;-72
2022/08/23 06:18:56;;;;;;;35.33;8.05;;;;;;;22.70;53.27;99808.91;1639671;87;21020;-73
2022/08/23 06:21:39;;;;;;;66.72;8.48;;;;;;;22.78;52.81;99812.25;1579099;89;21055;-71
2022/08/23 06:24:06;;;;;;;40.23;7.58;;;;;;;22.88;52.40;99814.60;1582967;90;21096;-75
2022/08/23 06:26:39;;;;;;;37.78;8.03;;;;;;;22.95;52.27;99813.55;1591376;87;21097;-75
2022/08/23 06:29:09;;;;;;;34.55;6.87;;;;;;;23.00;51.83;99815.55;1584210;89;21761;-76
2022/08/23 06:31:45;;;;;;;50.10;7.67;;;;;;;23.06;51.91;99817.55;1647840;87;20996;-77
2022/08/23 06:34:24;;;;;;;37.93;6.00;;;;;;;23.13;51.75;99813.70;1646617;87;20956;-74
2022/08/23 06:36:57;;;;;;;53.02;7.80;;;;;;;23.23;51.32;99816.64;1630801;87;21611;-73
2022/08/23 06:39:30;;;;;;;36.40;6.53;;;;;;;23.29;51.15;99824.37;1587195;88;21075;-76
2022/08/23 06:42:05;;;;;;;29.97;6.97;;;;;;;23.36;50.88;99821.08;1602061;88;21237;-74
2022/08/23 06:44:34;;;;;;;59.45;10.00;;;;;;;23.42;50.27;99826.63;1637327;86;21060;-74
2022/08/23 06:47:05;;;;;;;65.62;10.08;;;;;;;23.49;50.21;99833.02;1614234;88;21054;-73
2022/08/23 06:49:31;;;;;;;49.63;7.55;;;;;;;23.56;50.35;99834.65;1654075;86;21114;-72
2022/08/23 06:51:58;;;;;;;40.10;8.93;;;;;;;23.65;50.02;99836.77;1636862;86;21119;-73
2022/08/23 06:54:30;;;;;;;42.95;8.95;;;;;;;23.74;49.64;99841.06;1628409;86;21654;-72
2022/08/23 06:57:04;;;;;;;46.92;7.58;;;;;;;23.85;49.15;99843.66;1622021;87;21582;-74
2022/08/23 06:59:33;;;;;;;46.18;8.70;;;;;;;23.96;48.70;99835.84;1605039;87;21074;-72
2022/08/23 07:02:13;;;;;;;41.65;7.10;;;;;;;24.06;48.44;99839.56;1646000;86;21027;-73
2022/08/23 07:04:52;;;;;;;40.73;6.60;;;;;;;24.16;48.21;99844.68;1607201;86;21191;-71
2022/08/23 07:07:17;;;;;;;64.90;9.23;;;;;;;24.26;47.80;99844.27;1635872;86;21564;-72
2022/08/23 07:09:43;;;;;;;51.58;10.05;;;;;;;24.33;47.94;99843.71;1633044;87;21505;-72
2022/08/23 07:12:11;;;;;;;43.90;10.45;;;;;;;24.38;47.78;99842.70;1615493;87;21585;-73
2022/08/23 07:14:41;;;;;;;48.55;7.95;;;;;;;24.44;47.87;99842.73;1583277;87;21057;-72
2022/08/23 07:17:08;;;;;;;54.83;9.68;;;;;;;24.55;47.67;99850.80;1651777;86;21091;-70
2022/08/23 07:19:35;;;;;;;56.45;11.83;;;;;;;24.64;47.48;99848.76;1643671;86;21634;-74
2022/08/23 07:22:04;;;;;;;46.60;9.13;;;;;;;24.72;46.90;99854.16;1603727;88;21525;-75
2022/08/23 07:24:32;;;;;;;60.23;9.50;;;;;;;24.83;46.09;99855.92;1575998;89;21075;-73
2022/08/23 07:27:00;;;;;;;51.95;9.38;;;;;;;24.94;44.47;99861.22;1569876;91;21051;-72
2022/08/23 07:29:28;;;;;;;54.35;9.08;;;;;;;25.03;43.95;99857.83;1585989;88;21047;-73
2022/08/23 07:31:55;;;;;;;49.38;9.53;;;;;;;25.11;43.81;99862.98;1599249;89;21552;-73
2022/08/23 07:34:23;;;;;;;54.95;9.68;;;;;;;25.19;43.44;99876.64;1614198;87;21076;-72
2022/08/23 07:36:51;;;;;;;49.95;9.13;;;;;;;25.24;43.55;99878.36;1636744;86;21038;-73
2022/08/23 07:39:19;;;;;;;44.03;10.32;;;;;;;25.30;43.54;99872.88;1640793;86;21074;-69
2022/08/23 07:41:46;;;;;;;71.20;9.43;;;;;;;25.35;43.11;99869.89;1638666;87;21117;-70
2022/08/23 07:44:13;;;;;;;48.58;10.28;;;;;;;25.42;43.00;99878.97;1660476;86;21299;-70
2022/08/23 07:46:43;;;;;;;47.38;8.63;;;;;;;25.50;43.27;99875.28;1625294;86;20970;-71
2022/08/23 07:49:10;;;;;;;71.42;11.08;;;;;;;25.58;43.00;99874.39;1607574;87;21030;-70
2022/08/23 07:51:40;;;;;;;44.83;8.75;;;;;;;25.65;43.01;99873.25;1613259;88;21105;-71
2022/08/23 07:54:08;;;;;;;59.35;12.10;;;;;;;25.69;42.49;99871.41;1632363;88;21087;-72
2022/08/23 07:56:39;;;;;;;85.42;10.70;;;;;;;25.73;42.49;99875.06;1633480;86;21122;-74
2022/08/23 07:59:10;;;;;;;44.70;7.62;;;;;;;25.79;42.36;99881.15;1626528;86;21095;-71
2022/08/23 08:01:42;;;;;;;49.60;9.90;;;;;;;25.85;42.27;99879.77;1621684;86;21523;-72
2022/08/23 08:04:10;;;;;;;42.15;10.82;;;;;;;25.91;42.32;99878.36;1646790;86;21019;-73
2022/08/23 08:06:42;;;;;;;47.38;9.23;;;;;;;25.95;42.14;99880.08;1626846;88;21048;-71
2022/08/23 08:09:09;;;;;;;60.10;9.18;;;;;;;25.98;42.11;99879.40;1640790;86;21080;-71
2022/08/23 08:11:41;;;;;;;60.70;9.43;;;;;;;26.02;41.69;99873.41;1632131;87;21619;-74
2022/08/23 08:14:09;;;;;;;77.60;10.88;;;;;;;26.08;41.69;99882.82;1649808;86;21045;-71
2022/08/23 08:16:41;;;;;;;41.45;7.58;;;;;;;26.13;41.53;99882.58;1653760;86;21603;-72
2022/08/23 08:19:10;;;;;;;67.85;9.53;;;;;;;26.16;41.78;99887.39;1652087;86;20979;-72
2022/08/23 08:21:47;;;;;;;53.63;8.38;;;;;;;26.22;41.92;99887.41;1614410;87;21583;-74
2022/08/23 08:24:16;;;;;;;44.75;8.78;;;;;;;26.29;42.25;99888.98;1653692;86;21494;-70
2022/08/23 08:26:47;;;;;;;51.83;8.50;;;;;;;26.34;42.18;99890.92;1656129;86;22221;-71
2022/08/23 08:29:14;;;;;;;44.20;8.48;;;;;;;26.39;42.09;99887.11;1639546;86;21537;-73
2022/08/23 08:31:44;;;;;;;35.73;8.25;;;;;;;26.42;42.18;99885.86;1632347;87;22208;-73
2022/08/23 08:34:11;;;;;;;72.65;10.18;;;;;;;26.47;42.12;99886.17;1638176;86;22384;-74
2022/08/23 08:36:47;;;;;;;45.17;8.35;;;;;;;26.52;41.82;99882.36;1634813;87;21644;-74
2022/08/23 08:39:22;;;;;;;41.68;8.45;;;;;;;26.52;41.24;99885.13;1653077;86;21042;-74
2022/08/23 08:42:13;;;;;;;42.27;7.95;;;;;;;26.54;41.32;99893.27;1631276;86;21111;-73
2022/08/23 08:44:57;;;;;;;48.77;10.77;;;;;;;26.59;41.50;99894.39;1627001;87;21172;-74
2022/08/23 08:47:57;;;;;;;34.40;8.15;;;;;;;26.61;42.07;99904.52;1623865;87;21052;-74
2022/08/23 08:50:44;;;;;;;49.53;10.03;;;;;;;26.62;42.22;99901.95;1611782;87;21078;-73
2022/08/23 08:53:15;;;;;;;40.63;9.35;;;;;;;26.75;42.03;99899.38;1596043;87;21136;-75
2022/08/23 08:55:50;;;;;;;30.80;6.65;;;;;;;26.91;41.75;99893.91;1604386;89;21119;-74
2022/08/23 08:58:21;;;;;;;42.33;9.43;;;;;;;27.09;40.35;99880.59;1609241;89;21549;-73
2022/08/23 09:00:49;;;;;;;39.03;5.97;;;;;;;27.29;38.03;99886.41;1609670;87;21726;-74
2022/08/23 09:03:21;;;;;;;40.75;6.42;;;;;;;27.52;37.03;99886.63;1608815;87;21078;-75
2022/08/23 09:05:58;;;;;;;27.13;6.15;;;;;;;27.70;36.80;99887.27;1595923;87;21580;-73
2022/08/23 09:08:49;;;;;;;31.97;6.67;;;;;;;27.83;35.75;99878.27;1611590;88;20984;-73
2022/08/23 09:11:36;;;;;;;30.15;5.20;;;;;;;27.93;34.54;99880.47;1595818;88;21061;-72
2022/08/23 09:14:20;;;;;;;24.07;6.25;;;;;;;28.05;33.43;99873.44;1614899;88;22213;-71
2022/08/23 09:16:59;;;;;;;37.05;5.40;;;;;;;28.19;32.57;99874.36;1641581;86;21041;-72
2022/08/23 09:19:25;;;;;;;19.55;4.65;;;;;;;28.32;32.25;99863.94;1646447;85;21784;-72
2022/08/23 09:22:06;;;;;;;27.07;6.00;;;;;;;28.44;31.49;99882.56;1617917;87;21038;-72
2022/08/23 09:24:33;;;;;;;29.57;4.22;;;;;;;28.51;31.79;99880.53;1653312;86;21305;-70
2022/08/23 09:27:05;;;;;;;17.50;5.37;;;;;;;28.59;32.03;99885.84;1596268;87;21067;-71
2022/08/23 09:29:36;;;;;;;10.30;4.75;;;;;;;28.67;31.91;99891.53;1605207;89;21035;-71
2022/08/23 09:32:06;;;;;;;26.23;5.05;;;;;;;28.81;32.36;99884.91;1616455;87;21530;-72
2022/08/23 09:34:41;;;;;;;27.80;5.53;;;;;;;28.95;32.60;99885.97;1615655;88;21035;-72
2022/08/23 09:37:19;;;;;;;24.10;5.35;;;;;;;29.12;32.18;99883.28;1615078;88;21027;-72
2022/08/23 09:39:50;;;;;;;26.07;5.67;;;;;;;29.24;31.90;99876.19;1630301;87;21210;-72
2022/08/23 09:42:35;;;;;;;19.57;4.22;;;;;;;29.35;31.62;99877.17;1612801;87;21095;-73
2022/08/23 09:45:27;;;;;;;14.73;5.50;;;;;;;29.42;31.80;99889.78;1600916;86;21108;-72
2022/08/23 09:47:53;;;;;;;19.20;4.58;;;;;;;29.48;30.60;99883.92;1620873;86;21018;-71
2022/08/23 09:50:35;;;;;;;14.93;3.90;;;;;;;29.41;30.07;99892.33;1643037;86;21061;-74
2022/08/23 09:53:09;;;;;;;13.25;4.65;;;;;;;29.32;30.33;99881.28;1631809;86;22353;-72
2022/08/23 09:55:42;;;;;;;12.85;3.85;;;;;;;29.19;30.54;99890.35;1624199;86;22192;-70
2022/08/23 09:58:23;;;;;;;16.75;3.85;;;;;;;29.12;30.66;99873.59;1594458;90;21087;-70
2022/08/23 10:01:12;;;;;;;12.37;3.90;;;;;;;29.11;30.92;99881.71;1608044;87;21128;-71
2022/08/23 10:03:41;;;;;;;16.50;5.75;;;;;;;29.19;30.67;99875.11;1615405;87;21059;-70
2022/08/23 10:06:14;;;;;;;20.40;5.03;;;;;;;29.37;30.11;99885.93;1621860;88;21770;-70
2022/08/23 10:08:55;;;;;;;32.42;5.33;;;;;;;29.52;29.68;99887.55;1615779;87;21116;-72
2022/08/23 10:11:27;;;;;;;33.88;4.42;;;;;;;29.69;28.93;99885.66;1621407;88;21097;-75
2022/08/23 10:13:53;;;;;;;20.00;4.33;;;;;;;29.86;28.58;99888.68;1615465;87;21029;-71
2022/08/23 10:16:38;;;;;;;15.40;4.45;;;;;;;30.01;28.80;99889.71;1602751;86;20990;-78
2022/08/23 10:19:22;;;;;;;14.43;4.05;;;;;;;30.14;28.61;99881.36;1605929;88;22118;-72
2022/08/23 10:22:11;;;;;;;13.60;3.98;;;;;;;30.26;27.97;99885.89;1623237;87;21065;-70
2022/08/23 10:25:14;;;;;;;18.45;4.97;;;;;;;30.34;28.04;99880.63;1607120;87;21107;-71
2022/08/23 10:31:24;;;;;;;15.28;3.85;;;;;;;30.57;27.98;99890.25;1598282;88;21080;-70
2022/08/23 10:34:23;;;;;;;18.70;3.47;;;;;;;30.68;27.75;99870.34;1593265;89;21194;-71
2022/08/23 10:37:08;;;;;;;32.15;6.05;;;;;;;30.77;27.26;99881.14;1611025;88;21146;-72
2022/08/23 10:39:36;;;;;;;26.35;4.60;;;;;;;30.85;27.06;99872.50;1631091;88;21053;-76
2022/08/23 10:42:25;;;;;;;14.13;3.22;;;;;;;30.91;26.62;99879.31;1624530;86;21055;-77
2022/08/23 10:45:29;;;;;;;18.65;3.58;;;;;;;30.97;26.31;99868.07;1593278;88;30041;-76
2022/08/23 10:48:19;;;;;;;17.05;3.47;;;;;;;31.05;25.28;99876.70;1617822;88;22301;-78
2022/08/23 10:50:50;;;;;;;10.15;3.30;;;;;;;31.10;25.34;99881.91;1644198;87;21056;-77
2022/08/23 10:53:18;;;;;;;29.48;3.12;;;;;;;31.21;25.40;99884.80;1618863;88;21046;-77
2022/08/23 10:56:01;;;;;;;20.52;5.03;;;;;;;31.32;25.37;99886.28;1620478;87;21061;-77
2022/08/23 10:58:52;;;;;;;22.77;3.90;;;;;;;31.48;25.48;99875.08;1596759;89;21161;-77
2022/08/23 11:02:04;;;;;;;14.10;3.45;;;;;;;31.61;24.76;99878.98;1619522;86;21244;-71
2022/08/23 11:04:44;;;;;;;19.48;3.55;;;;;;;31.69;24.58;99882.02;1627748;86;21044;-72
2022/08/23 11:07:30;;;;;;;31.25;4.85;;;;;;;31.75;25.12;99889.59;1606236;87;21141;-69
2022/08/23 11:10:25;;;;;;;12.07;3.52;;;;;;;31.89;25.35;99887.52;1586421;88;21111;-69
2022/08/23 11:13:05;;;;;;;17.12;3.47;;;;;;;32.04;25.29;99884.41;1618832;86;21006;-69
2022/08/23 11:15:46;;;;;;;18.55;3.10;;;;;;;32.12;24.84;99890.05;1595074;88;21306;-68
2022/08/23 11:18:39;;;;;;;15.00;3.92;;;;;;;32.15;25.08;99887.88;1596605;88;21534;-73
2022/08/23 11:21:40;;;;;;;14.20;2.70;;;;;;;32.19;24.46;99871.98;1596119;88;21092;-75
2022/08/23 11:24:15;;;;;;;7.55;2.33;;;;;;;32.18;24.40;99889.30;1653255;86;21031;-76
2022/08/23 11:26:51;;;;;;;20.62;4.55;;;;;;;32.26;24.31;99885.36;1641196;86;21120;-71
2022/08/23 11:29:26;;;;;;;13.15;3.72;;;;;;;32.28;24.42;99888.53;1645466;86;21131;-72
2022/08/23 11:32:22;;;;;;;16.12;4.55;;;;;;;32.38;24.43;99877.23;1608572;88;21088;-72
2022/08/23 11:34:55;;;;;;;24.18;4.10;;;;;;;32.42;24.46;99879.47;1626534;87;20984;-72
2022/08/23 11:37:27;;;;;;;23.60;4.45;;;;;;;32.41;24.87;99885.63;1604277;87;21114;-74
2022/08/23 11:40:03;;;;;;;23.40;5.78;;;;;;;32.48;25.16;99878.46;1602469;89;21030;-73
2022/08/23 11:42:45;;;;;;;32.42;4.85;;;;;;;32.54;25.28;99876.91;1611587;87;21119;-78
2022/08/23 11:45:38;;;;;;;9.68;3.25;;;;;;;32.64;25.45;99881.73;1590126;88;21088;-75
2022/08/23 11:48:18;;;;;;;28.47;5.10;;;;;;;32.69;24.67;99875.19;1600194;88;20971;-75
2022/08/23 11:50:59;;;;;;;14.25;4.40;;;;;;;32.67;24.69;99870.60;1599799;88;21546;-75
2022/08/23 11:53:55;;;;;;;31.52;6.45;;;;;;;32.57;24.10;99862.98;1608689;87;21858;-75
2022/08/23 11:57:03;;;;;;;16.15;4.62;;;;;;;32.50;24.20;99893.61;1631068;87;21130;-74
2022/08/23 12:00:12;;;;;;;26.52;4.62;;;;;;;32.52;24.29;99882.85;1607318;88;21572;-77
2022/08/23 12:02:59;;;;;;;19.15;3.62;;;;;;;32.61;23.83;99873.56;1612942;88;21008;-74
2022/08/23 12:05:34;;;;;;;14.43;3.67;;;;;;;32.58;23.73;99884.66;1602189;89;21595;-73